Time;durP1;ratioP1;P1;durP2;ratioP2;P2;SDS_P1;SDS_P2;PMS_P1;PMS_P2;Temp;Humidity;BMP_temperature;BMP_pressure;BME280_temperature;BME280_humidity;BME280_pressure;Samples;Min_cycle;Max_cycle;Signal;HPM_P1;HPM_P2
2023/02/22 00:00:39;;;;;;;28.92;15.00;;;8.00;99.90;;;;;;4917379;29;20182;-79
2023/02/22 00:03:06;;;;;;;30.67;14.45;;;8.00;99.90;;;;;;4901731;29;20193;-80
2023/02/22 00:05:32;;;;;;;24.20;13.57;;;7.90;99.90;;;;;;4900813;29;20615;-80
2023/02/22 00:07:59;;;;;;;28.27;13.82;;;7.90;99.90;;;;;;4917372;29;20335;-79
2023/02/22 00:10:26;;;;;;;31.17;14.88;;;7.90;99.90;;;;;;4915827;29;20273;-81
2023/02/22 00:12:53;;;;;;;30.70;15.13;;;7.90;99.90;;;;;;4918683;29;20174;-80
2023/02/22 00:15:22;;;;;;;29.02;14.55;;;7.80;99.90;;;;;;4917539;29;20238;-80
2023/02/22 00:17:47;;;;;;;25.38;13.20;;;7.80;99.90;;;;;;4918297;29;20254;-79
2023/02/22 00:20:18;;;;;;;26.17;13.05;;;7.80;99.90;;;;;;4915794;29;20190;-80
2023/02/22 00:22:46;;;;;;;27.17;13.83;;;7.80;99.90;;;;;;4917624;29;20175;-80
2023/02/22 00:25:14;;;;;;;26.42;14.13;;;7.80;99.90;;;;;;4917661;29;20514;-79
2023/02/22 00:27:39;;;;;;;29.27;14.65;;;7.80;99.90;;;;;;4917694;29;20186;-79
2023/02/22 00:30:08;;;;;;;23.95;12.52;;;7.80;99.90;;;;;;4916782;29;20251;-80
2023/02/22 00:32:34;;;;;;;26.60;13.93;;;7.70;99.90;;;;;;4900152;29;20577;-79
2023/02/22 00:35:00;;;;;;;32.13;14.88;;;7.70;99.90;;;;;;4917109;29;20191;-80
2023/02/22 00:37:30;;;;;;;29.15;15.10;;;7.70;99.90;;;;;;4917608;29;20230;-79
2023/02/22 00:39:56;;;;;;;28.05;12.88;;;7.70;99.90;;;;;;4916968;29;20265;-79
2023/02/22 00:42:21;;;;;;;32.63;14.30;;;7.60;99.90;;;;;;4917274;29;20261;-79
2023/02/22 00:44:47;;;;;;;28.20;14.37;;;7.70;99.90;;;;;;4916917;29;20193;-80
2023/02/22 00:47:13;;;;;;;28.93;15.17;;;7.70;99.90;;;;;;4916517;29;20186;-80
2023/02/22 00:49:38;;;;;;;28.75;15.20;;;7.70;99.90;;;;;;4915899;29;20194;-80
2023/02/22 00:52:04;;;;;;;31.47;14.93;;;7.60;99.90;;;;;;4917715;29;20179;-80
2023/02/22 00:54:30;;;;;;;28.83;14.23;;;7.60;99.90;;;;;;4917020;29;20233;-80
2023/02/22 00:56:57;;;;;;;26.07;13.40;;;7.60;99.90;;;;;;4900553;29;20214;-79
2023/02/22 00:59:23;;;;;;;27.60;13.45;;;7.60;99.90;;;;;;4915560;29;20201;-78
2023/02/22 01:01:49;;;;;;;31.55;14.15;;;7.60;99.90;;;;;;4916796;29;20182;-81
2023/02/22 01:04:14;;;;;;;24.73;12.45;;;7.50;99.90;;;;;;4917735;29;20186;-81
2023/02/22 01:06:40;;;;;;;28.85;13.57;;;7.50;99.90;;;;;;4916650;29;20622;-80
2023/02/22 01:09:06;;;;;;;24.88;13.15;;;7.50;99.90;;;;;;4899015;29;20218;-80
2023/02/22 01:11:32;;;;;;;27.93;12.77;;;7.50;99.90;;;;;;4915908;29;20201;-79
2023/02/22 01:13:58;;;;;;;28.93;13.53;;;7.50;99.90;;;;;;4899455;29;20179;-80
2023/02/22 01:16:25;;;;;;;23.80;12.43;;;7.60;99.90;;;;;;4916806;29;20261;-79
2023/02/22 01:18:50;;;;;;;23.40;12.35;;;7.60;99.90;;;;;;4917517;29;20175;-79
2023/02/22 01:21:16;;;;;;;22.70;11.37;;;7.60;99.90;;;;;;4915573;29;20259;-80
2023/02/22 01:23:46;;;;;;;23.30;12.07;;;7.70;99.90;;;;;;4899642;29;20262;-79
2023/02/22 01:26:12;;;;;;;26.75;13.05;;;7.60;99.90;;;;;;4915708;29;20186;-79
2023/02/22 01:28:38;;;;;;;31.50;14.23;;;7.50;99.90;;;;;;4917285;29;20208;-80
2023/02/22 01:31:05;;;;;;;27.13;13.73;;;7.50;99.90;;;;;;4915642;29;20187;-80
2023/02/22 01:33:31;;;;;;;27.03;14.00;;;7.50;99.90;;;;;;4917218;29;20599;-80
2023/02/22 01:35:56;;;;;;;27.97;13.67;;;7.50;99.90;;;;;;4915892;29;20214;-79
2023/02/22 01:38:22;;;;;;;32.85;15.40;;;7.40;99.90;;;;;;4899465;29;20186;-79
2023/02/22 01:40:50;;;;;;;33.20;15.87;;;7.40;99.90;;;;;;4915238;29;20658;-79
2023/02/22 01:43:26;;;;;;;31.47;14.67;;;7.40;99.90;;;;;;4916979;29;20186;-79
2023/02/22 01:46:03;;;;;;;30.60;14.47;;;7.40;99.90;;;;;;4915847;29;20178;-80
2023/02/22 01:48:43;;;;;;;34.30;14.70;;;7.40;99.90;;;;;;4916818;29;20524;-80
2023/02/22 01:51:16;;;;;;;31.77;14.85;;;7.40;99.90;;;;;;4914176;29;20178;-79
2023/02/22 01:53:58;;;;;;;32.67;14.53;;;7.40;99.90;;;;;;4916800;29;20227;-79
2023/02/22 01:56:26;;;;;;;29.27;14.30;;;7.30;99.90;;;;;;4915965;29;20222;-79
2023/02/22 01:58:58;;;;;;;31.73;15.40;;;7.30;99.90;;;;;;4916907;29;20174;-79
2023/02/22 02:01:43;;;;;;;35.73;16.47;;;7.30;99.90;;;;;;4898174;29;20299;-79
2023/02/22 02:04:14;;;;;;;30.10;14.67;;;7.20;99.90;;;;;;4908962;29;20179;-79
2023/02/22 02:06:41;;;;;;;36.15;15.55;;;7.30;99.90;;;;;;4914435;29;20209;-80
2023/02/22 02:09:38;;;;;;;32.97;14.83;;;7.20;99.90;;;;;;4916798;29;20210;-79
2023/02/22 02:12:07;;;;;;;33.67;15.18;;;7.20;99.90;;;;;;4903989;29;20550;-79
2023/02/22 02:14:33;;;;;;;38.13;15.88;;;7.20;99.90;;;;;;4915195;29;20950;-79
2023/02/22 02:17:02;;;;;;;33.70;15.63;;;7.20;99.90;;;;;;4898877;29;20270;-79
2023/02/22 02:19:43;;;;;;;34.75;15.77;;;7.20;99.90;;;;;;4899146;29;20186;-80
2023/02/22 02:22:30;;;;;;;36.27;15.63;;;7.20;99.90;;;;;;4916236;29;20193;-79
2023/02/22 02:25:21;;;;;;;31.03;14.63;;;7.20;99.90;;;;;;4903417;29;20178;-80
2023/02/22 02:28:20;;;;;;;31.27;14.43;;;7.20;99.90;;;;;;4902123;29;20182;-79
2023/02/22 02:31:09;;;;;;;31.73;13.23;;;7.20;99.90;;;;;;4918567;29;20615;-80
2023/02/22 02:34:02;;;;;;;30.60;14.73;;;7.20;99.90;;;;;;4897395;29;20662;-79
2023/02/22 02:36:55;;;;;;;26.47;12.53;;;7.20;99.90;;;;;;4920120;29;20203;-80
2023/02/22 02:39:30;;;;;;;23.20;11.53;;;7.10;99.90;;;;;;4919210;29;20233;-79
2023/02/22 02:41:58;;;;;;;25.63;12.07;;;7.20;99.90;;;;;;4901917;29;20193;-80
2023/02/22 02:44:36;;;;;;;26.40;13.20;;;7.10;99.90;;;;;;4918703;29;20186;-79
2023/02/22 02:47:15;;;;;;;29.53;14.10;;;7.10;99.90;;;;;;4895609;29;20183;-79
2023/02/22 02:49:50;;;;;;;27.13;13.90;;;7.10;99.90;;;;;;4902380;29;20190;-79
2023/02/22 02:52:19;;;;;;;29.20;12.13;;;7.10;99.90;;;;;;4919368;29;20186;-79
2023/02/22 02:54:45;;;;;;;25.60;12.60;;;7.10;99.90;;;;;;4918671;29;20187;-80
2023/02/22 02:57:12;;;;;;;25.77;12.27;;;7.10;99.90;;;;;;4919700;29;20214;-80
2023/02/22 02:59:38;;;;;;;25.23;12.60;;;7.10;99.90;;;;;;4918360;29;20206;-80
2023/02/22 03:02:16;;;;;;;21.53;11.70;;;7.00;99.90;;;;;;4918596;29;20221;-79
2023/02/22 03:04:58;;;;;;;25.70;12.27;;;7.00;99.90;;;;;;4918633;29;20186;-80
2023/02/22 03:07:42;;;;;;;24.20;11.47;;;7.00;99.90;;;;;;4899483;29;20266;-79
2023/02/22 03:10:38;;;;;;;22.20;11.70;;;7.00;99.90;;;;;;4918656;29;20194;-79
2023/02/22 03:13:10;;;;;;;23.43;11.83;;;6.90;99.90;;;;;;4919688;29;20570;-80
2023/02/22 03:15:57;;;;;;;22.47;11.80;;;6.90;99.90;;;;;;4918579;29;20265;-80
2023/02/22 03:18:49;;;;;;;22.47;10.47;;;6.90;99.90;;;;;;4918502;29;20528;-79
2023/02/22 03:21:47;;;;;;;23.90;11.73;;;6.90;99.90;;;;;;4897274;29;20212;-79
2023/02/22 03:24:23;;;;;;;25.63;11.23;;;6.80;99.90;;;;;;4885444;29;20250;-80
2023/02/22 03:27:09;;;;;;;27.00;12.87;;;6.80;99.90;;;;;;4918891;29;20233;-79
2023/02/22 03:29:41;;;;;;;26.80;13.23;;;6.70;99.90;;;;;;4918439;29;20202;-80
2023/02/22 03:32:14;;;;;;;27.77;13.60;;;6.70;99.90;;;;;;4917877;29;20178;-79
2023/02/22 03:34:45;;;;;;;25.53;11.50;;;6.60;99.90;;;;;;4917533;29;20247;-80
2023/02/22 03:37:16;;;;;;;23.90;11.53;;;6.60;99.90;;;;;;4918323;29;20211;-80
2023/02/22 03:39:44;;;;;;;31.20;13.83;;;6.60;99.90;;;;;;4918412;29;20519;-79
2023/02/22 03:42:19;;;;;;;26.13;13.07;;;6.60;99.90;;;;;;4919132;29;20209;-79
2023/02/22 03:44:48;;;;;;;26.63;11.83;;;6.60;99.90;;;;;;4900292;29;20193;-79
2023/02/22 03:49:58;;;;;;;20.80;10.30;;;6.60;99.90;;;;;;4908196;23;20242;-79
2023/02/22 03:52:23;;;;;;;21.13;10.50;;;6.70;99.90;;;;;;4881260;29;20504;-80
2023/02/22 03:54:54;;;;;;;24.97;11.33;;;6.70;99.90;;;;;;4880634;29;20191;-80
2023/02/22 03:57:30;;;;;;;29.50;12.03;;;6.60;99.90;;;;;;4878855;29;20211;-80
2023/02/22 03:59:56;;;;;;;26.17;12.10;;;6.60;99.90;;;;;;4879688;29;20202;-80
2023/02/22 04:02:22;;;;;;;28.17;13.43;;;6.60;99.90;;;;;;4897857;29;20191;-80
2023/02/22 04:04:48;;;;;;;31.30;13.40;;;6.50;99.90;;;;;;4882792;29;20244;-80
2023/02/22 04:07:14;;;;;;;27.33;11.43;;;6.50;99.90;;;;;;4866432;29;20191;-80
2023/02/22 04:09:41;;;;;;;27.13;12.67;;;6.50;99.90;;;;;;4879057;29;20219;-82
2023/02/22 04:12:07;;;;;;;31.40;13.83;;;6.50;99.90;;;;;;4879377;29;20282;-80
2023/02/22 04:14:35;;;;;;;27.97;12.87;;;6.50;99.90;;;;;;4880895;29;20184;-80
2023/02/22 04:17:01;;;;;;;25.50;11.77;;;6.60;99.90;;;;;;4878719;29;20610;-80
2023/02/22 04:19:27;;;;;;;29.00;13.30;;;6.50;99.90;;;;;;4879335;29;20196;-81
2023/02/22 04:21:52;;;;;;;29.77;12.80;;;6.50;99.90;;;;;;4879166;29;20646;-79
2023/02/22 04:24:18;;;;;;;31.30;12.57;;;6.60;99.90;;;;;;4879728;29;20199;-80
2023/02/22 04:26:44;;;;;;;29.47;11.77;;;6.60;99.90;;;;;;4880778;29;20539;-80
2023/02/22 04:29:10;;;;;;;29.30;12.37;;;6.60;99.90;;;;;;4879102;29;20199;-80
2023/02/22 04:31:35;;;;;;;26.57;12.90;;;6.60;99.90;;;;;;4880672;29;20179;-81
2023/02/22 04:34:02;;;;;;;26.20;12.40;;;6.50;99.90;;;;;;4885498;29;20529;-81
2023/02/22 04:36:30;;;;;;;27.93;11.83;;;6.40;99.90;;;;;;4891619;29;20246;-79
2023/02/22 04:38:57;;;;;;;22.60;10.57;;;6.50;99.90;;;;;;4890463;29;20292;-80
2023/02/22 04:41:23;;;;;;;25.03;10.93;;;6.50;99.90;;;;;;4880412;29;20199;-80
2023/02/22 04:43:49;;;;;;;23.13;11.00;;;6.50;99.90;;;;;;4878764;29;20187;-80
2023/02/22 04:46:15;;;;;;;21.37;11.10;;;6.50;99.90;;;;;;4889553;29;20577;-80
2023/02/22 04:48:40;;;;;;;23.90;10.77;;;6.40;99.90;;;;;;4887477;29;20235;-80
2023/02/22 04:51:07;;;;;;;24.80;11.73;;;6.40;99.90;;;;;;4879732;29;20186;-80
2023/02/22 04:53:35;;;;;;;20.07;9.23;;;6.40;99.90;;;;;;4879364;29;20173;-80
2023/02/22 04:56:01;;;;;;;21.03;10.00;;;6.30;99.90;;;;;;4871333;29;20306;-80
2023/02/22 04:58:27;;;;;;;23.33;10.97;;;6.20;99.90;;;;;;4861876;29;20191;-80
2023/02/22 05:00:53;;;;;;;26.27;12.00;;;6.20;99.90;;;;;;4878464;29;20196;-81
2023/02/22 05:03:18;;;;;;;25.57;11.87;;;6.20;99.90;;;;;;4878883;29;20218;-80
2023/02/22 05:05:45;;;;;;;21.90;10.63;;;6.20;99.90;;;;;;4883868;29;20486;-79
2023/02/22 05:08:11;;;;;;;21.90;11.30;;;6.20;99.90;;;;;;4890414;29;20196;-80
2023/02/22 05:10:36;;;;;;;25.73;11.87;;;6.20;99.90;;;;;;4877872;29;20191;-80
2023/02/22 05:13:02;;;;;;;22.70;11.30;;;6.20;99.90;;;;;;4893292;29;20267;-81
2023/02/22 05:15:28;;;;;;;24.20;11.90;;;6.10;99.90;;;;;;4892218;29;20638;-81
2023/02/22 05:17:53;;;;;;;26.27;11.73;;;6.10;99.90;;;;;;4879565;29;20270;-80
2023/02/22 05:20:22;;;;;;;25.50;11.17;;;6.10;99.90;;;;;;4877709;29;20599;-79
2023/02/22 05:22:48;;;;;;;22.00;10.67;;;6.10;99.90;;;;;;4862734;29;20196;-81
2023/02/22 05:25:14;;;;;;;24.97;11.03;;;6.10;99.90;;;;;;4878407;29;20311;-79
2023/02/22 05:27:40;;;;;;;20.43;9.23;;;6.10;99.90;;;;;;4862070;29;20192;-79
2023/02/22 05:30:08;;;;;;;20.17;9.73;;;6.10;99.90;;;;;;4884833;29;20190;-80
2023/02/22 05:32:34;;;;;;;19.83;9.30;;;6.10;99.90;;;;;;4878215;29;20195;-80
2023/02/22 05:35:00;;;;;;;25.27;10.93;;;6.00;99.90;;;;;;4879041;29;20188;-80
2023/02/22 05:37:25;;;;;;;22.13;10.83;;;6.00;99.90;;;;;;4879275;29;20332;-79
2023/02/22 05:39:51;;;;;;;20.20;9.17;;;6.00;99.90;;;;;;4860731;29;20195;-80
2023/02/22 05:42:18;;;;;;;19.57;8.90;;;6.00;99.90;;;;;;4862664;29;20274;-80
2023/02/22 05:44:44;;;;;;;23.13;10.93;;;5.90;99.90;;;;;;4861947;29;20674;-79
2023/02/22 05:47:09;;;;;;;24.77;11.40;;;5.90;99.90;;;;;;4879527;29;20294;-79
2023/02/22 05:49:35;;;;;;;24.73;11.43;;;5.80;99.90;;;;;;4861091;29;20263;-78
2023/02/22 05:52:01;;;;;;;26.43;11.73;;;5.80;99.90;;;;;;4888220;29;20646;-79
2023/02/22 05:54:26;;;;;;;23.10;11.27;;;5.70;99.90;;;;;;4890946;29;20271;-79
2023/02/22 05:56:52;;;;;;;21.63;10.73;;;5.80;99.90;;;;;;4879287;29;20215;-79
2023/02/22 05:59:18;;;;;;;22.30;10.63;;;5.80;99.90;;;;;;4877773;29;20215;-80
2023/02/22 06:01:43;;;;;;;28.07;11.93;;;5.80;99.90;;;;;;4894498;29;20235;-80
2023/02/22 06:04:09;;;;;;;23.13;10.77;;;5.70;99.90;;;;;;4876804;29;20211;-79
2023/02/22 06:06:34;;;;;;;25.93;11.60;;;5.70;99.90;;;;;;4878314;29;20268;-80
2023/02/22 06:09:00;;;;;;;25.40;11.33;;;5.60;99.90;;;;;;4877123;29;20183;-81
2023/02/22 06:11:26;;;;;;;23.40;10.40;;;5.60;99.90;;;;;;4879315;29;20184;-80
2023/02/22 06:13:52;;;;;;;20.90;9.87;;;5.60;99.90;;;;;;4879168;29;20297;-80
2023/02/22 06:16:22;;;;;;;21.97;10.50;;;5.60;99.90;;;;;;4877600;29;20230;-80
2023/02/22 06:18:49;;;;;;;18.33;8.47;;;5.50;99.90;;;;;;4877739;29;20172;-79
2023/02/22 06:21:16;;;;;;;21.30;9.40;;;5.60;99.90;;;;;;4857949;29;20703;-80
2023/02/22 06:23:41;;;;;;;23.87;10.57;;;5.60;99.90;;;;;;4855518;29;20194;-80
2023/02/22 06:26:07;;;;;;;24.67;11.50;;;5.60;99.90;;;;;;4893499;29;20266;-79
2023/02/22 06:28:33;;;;;;;28.43;12.80;;;5.60;99.90;;;;;;4884147;29;20204;-80
2023/02/22 06:30:58;;;;;;;32.00;13.13;;;5.50;99.90;;;;;;4877179;29;20200;-81
2023/02/22 06:33:24;;;;;;;28.50;12.83;;;5.50;99.90;;;;;;4879051;29;20512;-80
2023/02/22 06:35:50;;;;;;;32.43;13.20;;;5.50;99.90;;;;;;4880493;29;20230;-80
2023/02/22 06:38:23;;;;;;;33.60;13.80;;;5.50;99.90;;;;;;4895081;29;20512;-80
2023/02/22 06:40:50;;;;;;;33.20;14.07;;;5.50;99.90;;;;;;4884647;29;20278;-80
2023/02/22 06:43:16;;;;;;;32.07;14.03;;;5.50;99.90;;;;;;4877318;29;20192;-81
2023/02/22 06:45:42;;;;;;;36.80;15.23;;;5.50;99.90;;;;;;4863780;29;20204;-80
2023/02/22 06:48:08;;;;;;;41.53;15.33;;;5.50;99.90;;;;;;4879378;29;20322;-80
2023/02/22 06:50:34;;;;;;;33.47;13.97;;;5.50;99.90;;;;;;4876957;29;20299;-81
2023/02/22 06:52:59;;;;;;;36.53;15.27;;;5.50;99.90;;;;;;4878361;29;20172;-80
2023/02/22 06:55:28;;;;;;;43.67;15.00;;;5.50;99.90;;;;;;4877999;29;20267;-81
2023/02/22 06:57:53;;;;;;;41.90;15.57;;;5.60;99.90;;;;;;4878258;29;20184;-79
2023/02/22 07:00:23;;;;;;;45.17;16.13;;;5.60;99.90;;;;;;4876366;29;20210;-81
2023/02/22 07:02:49;;;;;;;37.60;15.07;;;5.60;99.90;;;;;;4862022;29;20287;-81
2023/02/22 07:05:17;;;;;;;42.23;14.60;;;5.60;99.90;;;;;;4878859;29;20262;-79
2023/02/22 07:07:43;;;;;;;42.73;15.87;;;5.70;99.90;;;;;;4861687;29;20188;-81
2023/02/22 07:10:17;;;;;;;41.03;15.20;;;5.70;99.90;;;;;;4879590;29;20623;-80
2023/02/22 07:12:42;;;;;;;38.60;14.13;;;5.70;99.90;;;;;;4881171;29;20207;-80
2023/02/22 07:15:09;;;;;;;35.20;14.63;;;5.70;99.90;;;;;;4881270;29;20234;-80
2023/02/22 07:17:35;;;;;;;35.93;13.53;;;5.80;99.90;;;;;;4881262;29;20230;-80
2023/02/22 07:20:00;;;;;;;36.80;14.77;;;5.80;99.90;;;;;;4880046;29;21402;-81
2023/02/22 07:22:26;;;;;;;39.17;14.60;;;5.90;99.90;;;;;;4880578;29;20519;-81
2023/02/22 07:24:52;;;;;;;39.73;13.23;;;5.90;99.90;;;;;;4882025;29;20190;-80
2023/02/22 07:27:17;;;;;;;34.57;13.77;;;6.00;99.90;;;;;;4886278;29;20520;-79
2023/02/22 07:29:43;;;;;;;41.63;15.53;;;6.10;99.90;;;;;;4893595;29;20224;-79
2023/02/22 07:32:09;;;;;;;38.53;14.10;;;6.10;99.90;;;;;;4883665;29;20183;-79
2023/02/22 07:34:35;;;;;;;36.60;14.40;;;6.20;99.90;;;;;;4879841;29;20194;-79
2023/02/22 07:37:00;;;;;;;43.83;14.60;;;6.20;99.90;;;;;;4880523;29;20221;-79
2023/02/22 07:39:26;;;;;;;42.10;16.20;;;6.40;99.90;;;;;;4881069;29;20203;-79
2023/02/22 07:41:52;;;;;;;44.57;15.40;;;6.40;99.90;;;;;;4878868;29;20215;-78
2023/02/22 07:44:18;;;;;;;38.60;15.93;;;6.60;99.90;;;;;;4879757;29;20622;-78
2023/02/22 07:46:49;;;;;;;40.87;15.03;;;6.60;99.90;;;;;;4881360;29;20195;-78
2023/02/22 07:49:15;;;;;;;44.50;16.53;;;6.70;99.90;;;;;;4872669;29;20224;-79
2023/02/22 07:51:41;;;;;;;41.63;16.77;;;6.80;99.90;;;;;;4879788;29;20200;-80
2023/02/22 07:54:07;;;;;;;43.33;15.87;;;6.90;99.90;;;;;;4880988;29;20184;-80
2023/02/22 07:56:32;;;;;;;42.70;16.73;;;7.10;99.90;;;;;;4880164;29;20790;-79
2023/02/22 07:58:59;;;;;;;43.33;16.60;;;7.10;99.90;;;;;;4879651;29;20196;-80
2023/02/22 08:01:25;;;;;;;46.50;15.17;;;7.20;99.90;;;;;;4877773;29;20196;-78
2023/02/22 08:03:51;;;;;;;43.30;16.37;;;7.20;99.90;;;;;;4880220;29;20328;-79
2023/02/22 08:06:17;;;;;;;39.37;16.03;;;7.30;99.90;;;;;;4865574;29;20634;-79
2023/02/22 08:08:43;;;;;;;44.87;16.90;;;7.40;99.90;;;;;;4879465;29;20194;-78
2023/02/22 08:11:08;;;;;;;43.50;17.10;;;7.50;99.90;;;;;;4878321;29;20192;-79
2023/02/22 08:13:36;;;;;;;49.73;18.00;;;7.60;99.90;;;;;;4880182;29;20215;-78
2023/02/22 08:16:02;;;;;;;43.37;17.40;;;7.70;99.90;;;;;;4879475;29;20235;-79
2023/02/22 08:18:28;;;;;;;47.00;17.60;;;7.80;99.90;;;;;;4879078;29;20180;-79
2023/02/22 08:20:54;;;;;;;43.30;15.60;;;7.80;99.90;;;;;;4879361;29;20287;-80
2023/02/22 08:23:24;;;;;;;43.17;17.03;;;7.90;99.90;;;;;;4880544;29;20192;-79
2023/02/22 08:25:50;;;;;;;39.53;15.77;;;8.00;99.90;;;;;;4879754;29;20243;-81
2023/02/22 08:28:22;;;;;;;38.77;15.53;;;8.00;99.90;;;;;;4864322;29;20278;-82
2023/02/22 08:30:49;;;;;;;36.30;15.23;;;8.10;99.90;;;;;;4878788;29;20237;-82
2023/02/22 08:33:18;;;;;;;37.22;15.48;;;8.20;99.90;;;;;;4863667;29;20227;-82
2023/02/22 08:35:47;;;;;;;32.07;14.27;;;8.20;99.90;;;;;;4862522;29;20216;-81
2023/02/22 08:38:32;;;;;;;37.05;14.40;;;8.30;99.90;;;;;;4880009;29;20188;-81
2023/02/22 08:40:58;;;;;;;32.00;13.80;;;8.40;99.90;;;;;;4863141;29;20195;-81
2023/02/22 08:43:24;;;;;;;29.08;12.98;;;8.50;99.90;;;;;;4874464;29;20191;-81
2023/02/22 08:45:50;;;;;;;28.88;12.52;;;8.60;99.90;;;;;;4871576;29;20184;-81
2023/02/22 08:48:17;;;;;;;29.98;12.68;;;8.60;99.90;;;;;;4888986;29;20231;-81
2023/02/22 08:50:43;;;;;;;30.15;12.82;;;8.70;99.90;;;;;;4878133;29;20198;-81
2023/02/22 08:53:12;;;;;;;30.02;12.07;;;8.70;99.90;;;;;;4862455;29;20188;-81
2023/02/22 08:55:38;;;;;;;25.27;11.30;;;8.70;99.90;;;;;;4863703;29;20184;-82
2023/02/22 08:58:08;;;;;;;27.00;11.05;;;8.70;99.90;;;;;;4880685;29;20582;-82
2023/02/22 09:00:35;;;;;;;23.50;10.40;;;8.80;99.90;;;;;;4862447;29;20675;-82
2023/02/22 09:03:07;;;;;;;25.90;11.02;;;8.80;99.90;;;;;;4862644;29;20203;-82
2023/02/22 09:05:33;;;;;;;22.02;10.57;;;8.90;99.90;;;;;;4862469;29;20373;-82
2023/02/22 09:08:00;;;;;;;24.25;10.25;;;8.90;99.90;;;;;;4862695;29;20222;-81
2023/02/22 09:10:29;;;;;;;21.88;9.38;;;9.00;99.90;;;;;;4863225;29;20195;-82
2023/02/22 09:12:55;;;;;;;20.42;9.77;;;9.00;99.90;;;;;;4862551;29;20187;-81
2023/02/22 09:15:22;;;;;;;21.60;9.52;;;9.00;99.90;;;;;;4862132;29;20237;-81
2023/02/22 09:17:48;;;;;;;19.80;8.57;;;9.10;99.90;;;;;;4859194;29;20256;-82
2023/02/22 09:20:16;;;;;;;17.85;8.70;;;9.20;99.90;;;;;;4886444;29;20191;-82
2023/02/22 09:22:46;;;;;;;18.08;8.25;;;9.30;99.90;;;;;;4877984;29;20211;-82
2023/02/22 09:25:12;;;;;;;15.13;8.05;;;9.30;99.90;;;;;;4863008;29;20653;-83
2023/02/22 09:27:39;;;;;;;16.38;7.78;;;9.40;99.90;;;;;;4862607;29;20203;-81
2023/02/22 09:30:10;;;;;;;16.30;8.35;;;9.40;99.90;;;;;;4862844;29;20180;-82
2023/02/22 09:32:36;;;;;;;15.85;8.10;;;9.50;99.90;;;;;;4880103;29;20236;-81
2023/02/22 09:35:01;;;;;;;15.18;7.32;;;9.60;99.90;;;;;;4863182;29;20262;-82
2023/02/22 09:37:27;;;;;;;15.52;7.97;;;9.70;99.90;;;;;;4878989;29;20223;-80
2023/02/22 09:39:53;;;;;;;14.98;8.35;;;9.70;99.90;;;;;;4863001;29;20183;-81
2023/02/22 09:42:33;;;;;;;17.30;8.43;;;9.80;99.90;;;;;;4879577;29;20180;-82
2023/02/22 09:45:24;;;;;;;14.88;7.40;;;9.90;99.90;;;;;;4879203;29;20175;-82
2023/02/22 09:47:56;;;;;;;15.60;7.65;;;10.00;99.90;;;;;;4862331;29;20192;-82
2023/02/22 09:50:27;;;;;;;15.48;7.70;;;10.10;99.90;;;;;;4879610;29;20227;-81
2023/02/22 09:52:58;;;;;;;16.05;8.30;;;10.20;99.90;;;;;;4888736;29;20195;-81
2023/02/22 09:55:38;;;;;;;16.33;7.55;;;10.20;99.90;;;;;;4873917;29;20187;-82
2023/02/22 09:58:24;;;;;;;15.38;7.75;;;10.30;99.90;;;;;;4879857;29;20179;-82
2023/02/22 10:01:17;;;;;;;15.80;7.35;;;10.40;99.90;;;;;;4878567;29;20210;-82
2023/02/22 10:03:49;;;;;;;17.50;8.60;;;10.50;99.90;;;;;;4874464;29;20196;-82
2023/02/22 10:06:20;;;;;;;17.05;8.20;;;10.50;99.90;;;;;;4887833;29;20197;-81
2023/02/22 10:08:48;;;;;;;15.90;7.65;;;10.50;99.90;;;;;;4879753;29;20179;-82
2023/02/22 10:11:33;;;;;;;16.73;7.65;;;10.60;99.90;;;;;;4878678;29;20198;-81
2023/02/22 10:14:28;;;;;;;12.98;6.97;;;10.70;99.90;;;;;;4879493;29;20179;-81
2023/02/22 10:17:05;;;;;;;13.40;8.07;;;10.80;99.90;;;;;;4851061;29;20258;-83
2023/02/22 10:19:43;;;;;;;17.38;8.50;;;10.90;99.90;;;;;;4878455;29;20235;-82
2023/02/22 10:22:15;;;;;;;14.93;7.93;;;11.00;99.90;;;;;;4866966;29;20325;-81
2023/02/22 10:24:58;;;;;;;14.60;7.97;;;11.00;99.90;;;;;;4878901;29;20230;-83
2023/02/22 10:27:56;;;;;;;16.85;8.55;;;11.00;99.90;;;;;;4878804;29;20273;-82
2023/02/22 10:30:25;;;;;;;17.50;8.70;;;11.00;99.90;;;;;;4862036;29;20188;-81
2023/02/22 10:33:04;;;;;;;14.00;7.85;;;11.00;99.90;;;;;;4862553;29;20259;-83
2023/02/22 10:35:35;;;;;;;17.92;8.68;;;11.00;99.90;;;;;;4878668;29;20270;-82
2023/02/22 10:38:22;;;;;;;16.27;8.90;;;11.00;99.90;;;;;;4878477;29;20638;-81
2023/02/22 10:41:20;;;;;;;15.57;8.77;;;11.00;99.90;;;;;;4861862;29;20199;-82
2023/02/22 10:43:45;;;;;;;16.88;9.52;;;10.90;99.90;;;;;;4883081;29;20180;-81
2023/02/22 10:46:15;;;;;;;18.58;8.38;;;10.90;99.90;;;;;;4881348;29;20187;-81
2023/02/22 10:48:44;;;;;;;17.45;8.57;;;11.00;99.90;;;;;;4865092;29;20300;-82
2023/02/22 10:51:10;;;;;;;14.93;8.32;;;11.00;99.90;;;;;;4865392;29;20188;-82
2023/02/22 10:53:37;;;;;;;14.48;7.68;;;11.00;99.90;;;;;;4895647;29;20632;-81
2023/02/22 10:56:17;;;;;;;14.98;8.05;;;11.10;99.90;;;;;;4881962;29;20211;-81
2023/02/22 10:58:53;;;;;;;16.58;8.88;;;11.20;99.90;;;;;;4869217;29;20489;-82
2023/02/22 11:01:30;;;;;;;16.38;9.10;;;11.30;99.90;;;;;;4879037;29;20362;-82
2023/02/22 11:04:12;;;;;;;15.95;8.77;;;11.40;99.90;;;;;;4872431;29;20202;-82
2023/02/22 11:06:41;;;;;;;17.17;8.73;;;11.60;99.90;;;;;;4864473;29;20191;-82
2023/02/22 11:09:11;;;;;;;13.85;8.18;;;11.70;99.90;;;;;;4864777;29;20278;-82
2023/02/22 11:11:39;;;;;;;17.65;8.90;;;11.80;99.90;;;;;;4881540;29;20191;-82
2023/02/22 11:14:06;;;;;;;14.05;8.45;;;11.80;99.90;;;;;;4881348;29;20180;-81
2023/02/22 11:17:02;;;;;;;16.92;8.85;;;11.90;99.90;;;;;;4866817;29;20216;-81
2023/02/22 11:19:30;;;;;;;18.83;9.57;;;11.90;99.90;;;;;;4873050;29;20538;-81
2023/02/22 11:22:11;;;;;;;16.23;8.50;;;12.00;99.90;;;;;;4887696;29;20192;-82
2023/02/22 11:24:56;;;;;;;18.67;9.02;;;12.00;99.90;;;;;;4881565;29;20230;-80
2023/02/22 11:27:36;;;;;;;16.50;8.52;;;12.10;99.90;;;;;;4864945;29;20188;-80
2023/02/22 11:30:25;;;;;;;14.70;8.38;;;12.10;99.90;;;;;;4881523;29;20265;-82
2023/02/22 11:33:09;;;;;;;17.98;9.23;;;12.20;99.90;;;;;;4865158;29;20192;-81
2023/02/22 11:35:47;;;;;;;12.60;7.50;;;12.20;99.90;;;;;;4880676;29;20270;-82
2023/02/22 11:38:28;;;;;;;15.75;8.68;;;12.30;99.90;;;;;;4864319;29;20555;-81
2023/02/22 11:41:14;;;;;;;17.40;8.00;;;12.30;99.90;;;;;;4864205;29;20188;-81
2023/02/22 11:43:42;;;;;;;16.40;8.57;;;12.40;99.90;;;;;;4875426;29;20582;-82
2023/02/22 11:46:13;;;;;;;17.65;9.75;;;12.50;99.90;;;;;;4883889;29;20176;-83
2023/02/22 11:48:43;;;;;;;15.68;8.65;;;12.60;99.90;;;;;;4881760;29;20687;-82
2023/02/22 11:51:47;;;;;;;15.25;8.18;;;12.60;99.90;;;;;;4861470;29;20203;-81
2023/02/22 11:54:33;;;;;;;16.35;8.60;;;12.70;99.90;;;;;;4876794;29;20657;-82
2023/02/22 11:57:45;;;;;;;13.63;7.65;;;12.80;99.90;;;;;;4881037;29;20695;-82
2023/02/22 12:00:25;;;;;;;15.98;8.23;;;12.90;99.90;;;;;;4853909;29;20231;-81
2023/02/22 12:02:57;;;;;;;15.57;8.10;;;12.90;99.90;;;;;;4865625;29;20202;-82
2023/02/22 12:05:39;;;;;;;16.10;8.40;;;12.90;99.90;;;;;;4864642;29;20184;-81
2023/02/22 12:08:34;;;;;;;11.57;6.97;;;12.90;99.90;;;;;;4863050;29;20190;-81
2023/02/22 12:11:19;;;;;;;11.57;7.78;;;13.00;99.90;;;;;;4881039;29;20172;-81
2023/02/22 12:14:24;;;;;;;15.98;8.57;;;13.10;99.90;;;;;;4863813;29;20188;-81
2023/02/22 12:17:12;;;;;;;14.25;8.20;;;13.20;99.90;;;;;;4863504;29;20651;-81
2023/02/22 12:20:20;;;;;;;14.63;8.38;;;13.20;99.90;;;;;;4863110;29;20631;-81
2023/02/22 12:23:35;;;;;;;16.20;9.10;;;13.20;99.90;;;;;;4863438;29;20290;-82
2023/02/22 12:26:09;;;;;;;13.27;7.90;;;13.10;99.90;;;;;;4860396;29;20196;-84
2023/02/22 12:28:58;;;;;;;13.65;7.80;;;13.10;99.90;;;;;;4877891;29;20187;-82
2023/02/22 12:32:03;;;;;;;13.57;8.02;;;13.00;99.90;;;;;;4894783;29;20172;-82
2023/02/22 12:34:35;;;;;;;13.90;8.30;;;13.00;99.90;;;;;;4880930;29;20168;-82
2023/02/22 12:37:15;;;;;;;14.45;8.85;;;13.00;99.90;;;;;;4879914;29;20268;-83
2023/02/22 12:40:12;;;;;;;18.55;9.88;;;13.00;99.90;;;;;;4864034;29;20190;-83
2023/02/22 12:42:43;;;;;;;16.63;9.27;;;13.00;99.90;;;;;;4881134;29;20175;-83
2023/02/22 12:45:33;;;;;;;17.20;9.88;;;13.00;99.90;;;;;;4864450;29;20309;-83
2023/02/22 12:48:18;;;;;;;16.17;8.88;;;13.00;99.90;;;;;;4863884;29;20310;-83
2023/02/22 12:50:47;;;;;;;17.48;8.85;;;13.10;99.90;;;;;;4863141;29;20658;-83
2023/02/22 12:53:28;;;;;;;15.98;9.68;;;13.10;99.90;;;;;;4863805;29;20179;-82
2023/02/22 12:56:03;;;;;;;15.35;9.27;;;13.20;99.90;;;;;;4880185;29;20195;-82
2023/02/22 12:58:38;;;;;;;15.63;9.18;;;13.30;99.90;;;;;;4863829;29;20247;-82
2023/02/22 13:01:16;;;;;;;17.17;9.65;;;13.30;99.90;;;;;;4878620;29;20207;-82
2023/02/22 13:03:43;;;;;;;17.55;9.88;;;13.30;99.90;;;;;;4861456;29;20202;-82